createdAt,value
2018-12-17T00:00:48.562Z,27.03
2018-12-17T00:03:16.184Z,25.03
2018-12-17T00:05:43.852Z,25.40
2018-12-17T00:08:11.468Z,26.10
2018-12-17T00:10:39.058Z,24.43
2018-12-17T00:13:06.684Z,24.57
2018-12-17T00:15:34.277Z,25.17
2018-12-17T00:18:01.893Z,24.87
2018-12-17T00:20:29.490Z,28.07
2018-12-17T00:22:57.114Z,29.40
2018-12-17T00:25:24.702Z,25.93
2018-12-17T00:27:52.319Z,30.37
2018-12-17T00:30:19.909Z,26.43
2018-12-17T00:32:47.526Z,25.50
2018-12-17T00:35:15.109Z,28.40
2018-12-17T00:37:42.728Z,25.00
2018-12-17T00:40:10.595Z,24.67
2018-12-17T00:42:38.239Z,24.70
2018-12-17T00:45:06.386Z,25.80
2018-12-17T00:47:33.974Z,23.30
2018-12-17T00:50:01.587Z,27.77
2018-12-17T00:52:29.181Z,24.27
2018-12-17T00:54:56.799Z,27.17
2018-12-17T00:57:24.384Z,28.50
2018-12-17T00:59:51.992Z,30.70
2018-12-17T01:02:19.585Z,25.20
2018-12-17T01:04:47.203Z,27.67
2018-12-17T01:07:14.805Z,28.93
2018-12-17T01:09:42.424Z,27.07
2018-12-17T01:12:10.015Z,29.03
2018-12-17T01:14:37.639Z,26.47
2018-12-17T01:17:05.375Z,25.17
2018-12-17T01:19:32.987Z,27.90
2018-12-17T01:22:00.571Z,26.47
2018-12-17T01:24:28.191Z,27.37
2018-12-17T01:26:55.962Z,28.33
2018-12-17T01:29:23.584Z,29.57
2018-12-17T01:31:51.179Z,29.60
2018-12-17T01:34:18.798Z,27.73
2018-12-17T01:36:46.391Z,31.73
2018-12-17T01:39:14.004Z,31.50
2018-12-17T01:41:41.595Z,28.30
2018-12-17T01:44:09.210Z,29.27
2018-12-17T01:46:36.803Z,29.00
2018-12-17T01:49:04.403Z,26.13
2018-12-17T01:51:32.016Z,28.70
2018-12-17T01:53:59.611Z,29.93
2018-12-17T01:56:27.230Z,29.33
2018-12-17T01:58:54.817Z,26.53
2018-12-17T02:01:24.413Z,28.03
2018-12-17T02:03:52.007Z,31.50
2018-12-17T02:06:19.628Z,29.10
2018-12-17T02:08:47.227Z,31.80
2018-12-17T02:11:14.847Z,32.70
2018-12-17T02:13:42.826Z,33.17
2018-12-17T02:16:10.443Z,30.73
2018-12-17T02:18:38.039Z,28.10
2018-12-17T02:21:05.730Z,30.33
2018-12-17T02:23:33.322Z,30.30
2018-12-17T02:26:00.939Z,30.70
2018-12-17T02:28:28.538Z,33.00
2018-12-17T02:30:56.158Z,31.83
2018-12-17T02:33:23.751Z,31.40
2018-12-17T02:35:51.366Z,30.53
2018-12-17T02:38:18.976Z,33.27
2018-12-17T02:40:46.599Z,31.70
2018-12-17T02:46:21.239Z,30.97
2018-12-17T02:48:48.837Z,35.73
2018-12-17T02:51:16.473Z,34.17
2018-12-17T02:53:44.071Z,32.63
2018-12-17T02:56:11.695Z,33.23
2018-12-17T02:58:43.967Z,32.43
2018-12-17T03:01:08.950Z,33.70
2018-12-17T03:03:36.540Z,35.03
2018-12-17T03:06:04.155Z,36.47
2018-12-17T03:08:31.755Z,34.60
2018-12-17T03:10:59.380Z,32.50
2018-12-17T03:13:26.969Z,33.27
2018-12-17T03:15:54.584Z,36.37
2018-12-17T03:18:22.179Z,34.30
2018-12-17T03:20:49.798Z,34.70
2018-12-17T03:23:17.402Z,33.77
2018-12-17T03:25:45.034Z,33.80
2018-12-17T03:28:12.649Z,33.47
2018-12-17T03:30:40.269Z,33.00
2018-12-17T03:33:07.868Z,33.83
2018-12-17T03:35:35.600Z,33.40
2018-12-17T03:38:03.197Z,35.70
2018-12-17T03:40:30.798Z,33.53
2018-12-17T03:42:58.437Z,36.77
2018-12-17T03:45:26.031Z,33.27
2018-12-17T03:47:53.649Z,35.80
2018-12-17T03:50:21.244Z,38.03
2018-12-17T03:52:48.864Z,35.97
2018-12-17T03:55:16.454Z,35.80
2018-12-17T03:57:44.072Z,32.40
2018-12-17T04:00:11.773Z,38.67
2018-12-17T04:02:39.395Z,44.50
2018-12-17T04:05:07.066Z,37.50
2018-12-17T04:07:34.759Z,36.17
2018-12-17T04:10:02.427Z,37.37
2018-12-17T04:12:30.121Z,38.70
2018-12-17T04:14:57.721Z,41.50
2018-12-17T04:17:25.343Z,36.57
2018-12-17T04:19:52.939Z,40.73
2018-12-17T04:22:20.557Z,38.83
2018-12-17T04:24:48.156Z,39.00
2018-12-17T04:27:15.765Z,36.63
2018-12-17T04:29:43.392Z,37.07
2018-12-17T04:32:10.988Z,37.10
2018-12-17T04:34:38.608Z,41.23
2018-12-17T04:37:06.206Z,34.80
2018-12-17T04:39:33.828Z,36.47
2018-12-17T04:42:01.430Z,32.17
2018-12-17T04:44:29.051Z,41.03
2018-12-17T04:46:56.648Z,39.50
2018-12-17T04:49:24.279Z,38.27
2018-12-17T04:51:51.871Z,36.20
2018-12-17T04:54:19.487Z,38.87
2018-12-17T04:56:47.084Z,36.60
2018-12-17T04:59:15.019Z,36.00
2018-12-17T05:01:42.746Z,39.00
2018-12-17T05:04:10.368Z,39.80
2018-12-17T05:06:37.975Z,33.93
2018-12-17T05:09:06.563Z,37.53
2018-12-17T05:11:34.156Z,36.20
2018-12-17T05:14:01.776Z,37.57
2018-12-17T05:16:29.378Z,36.50
2018-12-17T05:18:57.012Z,38.50
2018-12-17T05:21:24.617Z,41.20
2018-12-17T05:23:52.229Z,36.50
2018-12-17T05:26:19.827Z,38.80
2018-12-17T05:28:47.452Z,38.17
2018-12-17T05:31:15.059Z,36.50
2018-12-17T05:33:42.682Z,38.80
2018-12-17T05:36:10.281Z,43.70
2018-12-17T05:38:37.903Z,46.10
2018-12-17T05:41:05.506Z,41.60
2018-12-17T05:43:33.138Z,41.87
2018-12-17T05:46:00.737Z,44.00
2018-12-17T05:48:28.383Z,42.43
2018-12-17T05:50:55.986Z,41.03
2018-12-17T05:53:23.587Z,44.20
2018-12-17T05:55:51.207Z,40.83
2018-12-17T05:58:18.798Z,43.43
2018-12-17T06:00:46.413Z,41.20
2018-12-17T06:03:14.007Z,47.27
2018-12-17T06:05:41.619Z,43.80
2018-12-17T06:08:11.194Z,46.63
2018-12-17T06:10:38.819Z,41.73
2018-12-17T06:13:06.415Z,39.97
2018-12-17T06:15:34.035Z,52.60
2018-12-17T06:18:01.630Z,41.50
2018-12-17T06:20:29.253Z,43.83
2018-12-17T06:22:56.849Z,39.10
2018-12-17T06:25:24.463Z,49.90
2018-12-17T06:27:52.064Z,39.77
2018-12-17T06:30:19.683Z,44.93
2018-12-17T06:32:47.274Z,41.10
2018-12-17T06:35:14.889Z,46.17
2018-12-17T06:37:42.483Z,45.50
2018-12-17T06:40:10.604Z,46.80
2018-12-17T06:42:38.439Z,47.37
2018-12-17T06:45:06.447Z,50.80
2018-12-17T06:47:34.049Z,48.60
2018-12-17T06:50:01.687Z,48.73
2018-12-17T06:52:29.287Z,50.07
2018-12-17T06:54:56.878Z,49.73
2018-12-17T06:57:24.499Z,49.67
2018-12-17T06:59:52.109Z,117.27
2018-12-17T07:02:19.904Z,57.90
2018-12-17T07:04:47.503Z,58.70
2018-12-17T07:07:15.118Z,60.27
2018-12-17T07:09:42.715Z,60.40
2018-12-17T07:12:10.331Z,51.57
2018-12-17T07:14:37.929Z,63.80
2018-12-17T07:17:05.551Z,63.00
2018-12-17T07:19:33.150Z,59.17
2018-12-17T07:22:00.771Z,61.00
2018-12-17T07:24:28.392Z,65.33
2018-12-17T07:26:56.024Z,59.77
2018-12-17T07:29:23.614Z,69.20
2018-12-17T07:31:51.239Z,71.03
2018-12-17T07:34:18.831Z,78.97
2018-12-17T07:36:46.455Z,68.33
2018-12-17T07:39:14.051Z,83.33
2018-12-17T07:41:41.666Z,70.23
2018-12-17T07:44:09.266Z,67.33
2018-12-17T07:46:36.889Z,68.23
2018-12-17T07:49:04.492Z,70.00
2018-12-17T07:51:32.114Z,65.13
2018-12-17T07:53:59.707Z,68.33
2018-12-17T07:56:27.338Z,72.40
2018-12-17T07:58:54.943Z,76.53
2018-12-17T08:01:22.557Z,83.77
2018-12-17T08:03:50.155Z,69.00
2018-12-17T08:06:17.777Z,85.53
2018-12-17T08:08:45.368Z,77.40
2018-12-17T08:11:12.995Z,73.20
2018-12-17T08:13:40.590Z,82.73
2018-12-17T08:16:08.203Z,72.97
2018-12-17T08:18:35.798Z,87.03
2018-12-17T08:21:03.388Z,72.13
2018-12-17T08:23:31.012Z,73.40
2018-12-17T08:25:58.608Z,77.00
2018-12-17T08:28:26.224Z,81.07
2018-12-17T08:30:53.824Z,74.80
2018-12-17T08:33:21.450Z,69.83
2018-12-17T08:35:49.051Z,65.70
2018-12-17T08:38:16.675Z,73.10
2018-12-17T08:40:44.275Z,81.67
2018-12-17T08:43:11.890Z,72.07
2018-12-17T08:45:39.485Z,66.63
2018-12-17T08:48:07.114Z,68.10
2018-12-17T08:50:34.708Z,73.67
2018-12-17T08:53:02.336Z,80.63
2018-12-17T08:55:29.930Z,78.07
2018-12-17T08:57:57.546Z,77.17
2018-12-17T09:00:25.159Z,78.90
2018-12-17T09:02:52.787Z,70.70
2018-12-17T09:05:20.383Z,67.90
2018-12-17T09:07:47.998Z,74.73
2018-12-17T09:10:15.595Z,76.27
2018-12-17T09:12:43.294Z,85.87
2018-12-17T09:15:10.888Z,75.37
2018-12-17T09:17:38.507Z,76.73
2018-12-17T09:20:07.570Z,79.67
2018-12-17T09:22:35.276Z,81.60
2018-12-17T09:25:03.057Z,82.20
2018-12-17T09:27:30.671Z,72.87
2018-12-17T09:29:58.262Z,83.83
2018-12-17T09:32:25.882Z,87.10
2018-12-17T09:34:53.472Z,91.43
2018-12-17T09:37:21.087Z,84.13
2018-12-17T09:39:48.678Z,88.80
2018-12-17T09:42:16.291Z,70.07
2018-12-17T09:44:43.897Z,77.93
2018-12-17T09:47:11.522Z,78.67
2018-12-17T09:49:39.138Z,82.53
2018-12-17T09:52:06.726Z,84.83
2018-12-17T09:54:34.338Z,94.10
2018-12-17T09:57:01.931Z,75.70
2018-12-17T09:59:29.550Z,88.77
2018-12-17T10:01:57.138Z,79.10
2018-12-17T10:04:24.751Z,89.87
2018-12-17T10:06:52.344Z,93.93
2018-12-17T10:09:19.958Z,84.30
2018-12-17T10:11:47.554Z,84.33
2018-12-17T10:14:15.173Z,90.63
2018-12-17T10:16:42.774Z,83.73
2018-12-17T10:19:10.391Z,82.40
2018-12-17T10:21:37.983Z,77.20
2018-12-17T10:24:06.185Z,89.77
2018-12-17T10:26:33.863Z,77.53
2018-12-17T10:29:01.491Z,89.87
2018-12-17T10:31:29.093Z,78.30
2018-12-17T10:33:56.711Z,79.77
2018-12-17T10:36:24.302Z,88.93
2018-12-17T10:38:51.940Z,81.13
2018-12-17T10:41:19.531Z,80.37
2018-12-17T10:43:47.155Z,89.83
2018-12-17T10:46:14.747Z,82.53
2018-12-17T10:48:42.342Z,75.17
2018-12-17T10:51:09.970Z,82.53
2018-12-17T10:53:37.558Z,73.43
2018-12-17T10:56:05.175Z,83.70
2018-12-17T10:58:32.768Z,82.17
2018-12-17T11:01:06.128Z,80.97
2018-12-17T11:03:35.708Z,74.83
2018-12-17T11:06:05.304Z,83.57
2018-12-17T11:08:32.890Z,84.80
2018-12-17T11:11:00.509Z,77.53
2018-12-17T11:13:28.203Z,96.27
2018-12-17T11:15:55.815Z,178.07
2018-12-17T11:18:23.446Z,79.33
2018-12-17T11:20:51.067Z,76.70
2018-12-17T11:23:18.657Z,72.80
2018-12-17T11:28:55.993Z,82.20
2018-12-17T11:31:23.612Z,79.03
2018-12-17T11:33:51.201Z,86.10
2018-12-17T11:36:18.826Z,80.47
2018-12-17T11:38:46.414Z,95.27
2018-12-17T11:41:14.027Z,93.67
2018-12-17T11:43:44.020Z,77.97
2018-12-17T11:46:11.351Z,82.33
2018-12-17T11:48:39.233Z,86.57
2018-12-17T11:51:06.842Z,92.40
2018-12-17T11:53:34.440Z,87.87
2018-12-17T11:56:02.056Z,90.60
2018-12-17T11:58:29.642Z,87.40
2018-12-17T12:00:58.145Z,119.20
2018-12-17T12:03:25.747Z,102.33
2018-12-17T12:05:53.367Z,102.97
2018-12-17T12:08:20.959Z,92.97
2018-12-17T12:10:48.589Z,108.60
2018-12-17T12:13:16.196Z,111.70
2018-12-17T12:15:43.810Z,100.37
2018-12-17T12:18:11.407Z,89.47
2018-12-17T12:20:39.023Z,96.63
2018-12-17T12:23:06.629Z,100.97
2018-12-17T12:25:34.296Z,103.03
2018-12-17T12:28:01.893Z,98.87
2018-12-17T12:30:29.534Z,93.73
2018-12-17T12:32:57.127Z,97.80
2018-12-17T12:35:24.732Z,97.83
2018-12-17T12:37:52.351Z,99.97
2018-12-17T12:40:19.950Z,105.03
2018-12-17T12:42:51.524Z,122.70
2018-12-17T12:45:17.206Z,104.13
2018-12-17T12:47:44.823Z,91.17
2018-12-17T12:50:12.418Z,103.70
2018-12-17T12:52:40.053Z,110.93
2018-12-17T12:55:07.728Z,102.47
2018-12-17T12:57:35.352Z,96.37
2018-12-17T13:00:03.111Z,101.50
2018-12-17T13:02:30.729Z,96.50
2018-12-17T13:04:58.335Z,101.50
2018-12-17T13:07:25.957Z,115.53
2018-12-17T13:09:53.548Z,95.07
2018-12-17T13:12:21.161Z,99.43
2018-12-17T13:14:48.752Z,94.00
2018-12-17T13:17:22.078Z,106.90
2018-12-17T13:19:49.683Z,109.13
2018-12-17T13:22:17.299Z,105.87
2018-12-17T13:24:44.911Z,114.67
2018-12-17T13:27:12.530Z,104.00
2018-12-17T13:29:40.136Z,117.77
2018-12-17T13:32:07.758Z,108.57
2018-12-17T13:34:35.349Z,97.73
2018-12-17T13:37:02.964Z,98.53
2018-12-17T13:39:30.557Z,107.63
2018-12-17T13:41:58.149Z,91.53
2018-12-17T13:44:25.768Z,79.77
2018-12-17T13:46:53.368Z,85.53
2018-12-17T13:49:21.008Z,83.70
2018-12-17T13:51:54.154Z,86.63
2018-12-17T13:54:21.850Z,94.73
2018-12-17T13:56:49.447Z,97.63
2018-12-17T13:59:17.068Z,106.47
2018-12-17T14:01:51.222Z,98.67
2018-12-17T14:04:14.314Z,92.43
2018-12-17T14:06:41.907Z,83.07
2018-12-17T14:09:09.527Z,94.27
2018-12-17T14:11:37.126Z,96.23
2018-12-17T14:14:04.825Z,90.77
2018-12-17T14:16:37.934Z,89.73
2018-12-17T14:19:11.147Z,103.63
2018-12-17T14:21:44.369Z,90.23
2018-12-17T14:24:11.982Z,85.17
2018-12-17T14:26:39.584Z,76.67
2018-12-17T14:29:07.197Z,92.20
2018-12-17T14:31:34.793Z,79.50
2018-12-17T14:34:02.410Z,96.53
2018-12-17T14:36:30.004Z,86.57
2018-12-17T14:38:57.656Z,100.17
2018-12-17T14:41:25.252Z,96.90
2018-12-17T14:43:54.863Z,100.40
2018-12-17T14:46:22.464Z,88.83
2018-12-17T14:48:50.083Z,87.50
2018-12-17T14:51:17.682Z,102.17
2018-12-17T14:53:45.299Z,93.43
2018-12-17T14:56:12.891Z,87.93
2018-12-17T14:58:44.384Z,75.27
2018-12-17T15:01:10.143Z,83.70
2018-12-17T15:03:37.761Z,78.10
2018-12-17T15:06:05.359Z,88.27
2018-12-17T15:08:32.981Z,82.93
2018-12-17T15:11:24.122Z,74.20
2018-12-17T15:13:51.729Z,75.23
2018-12-17T15:16:19.315Z,87.87
2018-12-17T15:18:46.930Z,74.23
2018-12-17T15:21:14.519Z,74.27
2018-12-17T15:23:42.126Z,80.93
2018-12-17T15:26:09.718Z,75.90
2018-12-17T15:28:37.388Z,74.00
2018-12-17T15:31:04.999Z,69.00
2018-12-17T15:33:32.594Z,78.50
2018-12-17T15:36:00.213Z,75.97
2018-12-17T15:38:27.815Z,88.53
2018-12-17T15:40:55.432Z,78.70
2018-12-17T15:43:23.022Z,75.37
2018-12-17T15:45:50.644Z,77.03
2018-12-17T15:48:18.238Z,75.20
2018-12-17T15:50:45.851Z,75.97
2018-12-17T15:53:13.479Z,73.37
2018-12-17T15:55:41.100Z,73.77
2018-12-17T15:58:08.696Z,80.80
2018-12-17T16:00:36.306Z,75.50
2018-12-17T16:03:03.895Z,85.77
2018-12-17T16:05:31.593Z,71.00
2018-12-17T16:07:59.193Z,87.60
2018-12-17T16:10:26.806Z,86.67
2018-12-17T16:12:54.399Z,80.33
2018-12-17T16:15:22.025Z,75.53
2018-12-17T16:17:49.616Z,64.43
2018-12-17T16:20:17.233Z,69.77
2018-12-17T16:22:44.823Z,70.47
2018-12-17T16:25:12.439Z,74.53
2018-12-17T16:27:40.115Z,75.50
2018-12-17T16:30:09.489Z,74.00
2018-12-17T16:32:37.075Z,67.00
2018-12-17T16:35:05.357Z,75.13
2018-12-17T16:37:32.944Z,78.30
2018-12-17T16:40:00.560Z,74.20
2018-12-17T16:42:28.151Z,75.93
2018-12-17T16:44:55.787Z,69.50
2018-12-17T16:47:23.375Z,75.73
2018-12-17T16:49:51.084Z,79.90
2018-12-17T16:52:18.678Z,68.03
2018-12-17T16:54:46.356Z,79.67
2018-12-17T16:57:13.942Z,74.63
2018-12-17T16:59:41.538Z,80.57
2018-12-17T17:02:09.464Z,76.63
2018-12-17T17:04:37.292Z,72.83
2018-12-17T17:07:04.903Z,61.73
2018-12-17T17:09:32.505Z,64.27
2018-12-17T17:12:00.123Z,66.20
2018-12-17T17:14:27.715Z,60.37
2018-12-17T17:16:55.336Z,57.37
2018-12-17T17:19:22.927Z,61.40
2018-12-17T17:21:50.731Z,68.17
2018-12-17T17:24:18.335Z,71.20
2018-12-17T17:26:45.956Z,60.13
2018-12-17T17:29:13.549Z,63.50
2018-12-17T17:31:41.169Z,56.60
2018-12-17T17:34:10.138Z,60.77
2018-12-17T17:36:37.922Z,67.73
2018-12-17T17:39:07.676Z,58.73
2018-12-17T17:41:35.299Z,69.43
2018-12-17T17:44:02.892Z,62.20
2018-12-17T17:46:30.502Z,71.93
2018-12-17T17:48:58.096Z,57.07
2018-12-17T17:51:25.724Z,56.20
2018-12-17T17:53:53.323Z,64.60
2018-12-17T17:56:20.945Z,63.27
2018-12-17T17:58:48.624Z,55.97
2018-12-17T18:01:16.234Z,51.13
2018-12-17T18:03:43.829Z,54.80
2018-12-17T18:06:16.311Z,54.67
2018-12-17T18:08:41.083Z,54.13
2018-12-17T18:11:08.676Z,67.63
2018-12-17T18:13:36.282Z,60.33
2018-12-17T18:16:03.964Z,69.17
2018-12-17T18:18:31.587Z,69.77
2018-12-17T18:20:59.189Z,60.83
2018-12-17T18:23:26.810Z,55.60
2018-12-17T18:25:54.407Z,56.60
2018-12-17T18:28:22.027Z,52.13
2018-12-17T18:30:49.615Z,54.23
2018-12-17T18:33:17.229Z,58.83
2018-12-17T18:35:44.823Z,54.33
2018-12-17T18:38:12.436Z,53.43
2018-12-17T18:40:40.039Z,53.53
2018-12-17T18:43:07.659Z,47.00
2018-12-17T18:45:35.255Z,51.67
2018-12-17T18:48:02.876Z,56.10
2018-12-17T18:50:30.465Z,52.20
2018-12-17T18:52:58.083Z,51.30
2018-12-17T18:55:25.670Z,53.67
2018-12-17T18:57:53.289Z,50.87
2018-12-17T19:00:20.879Z,50.13
2018-12-17T19:02:48.491Z,50.63
2018-12-17T19:05:16.087Z,54.30
2018-12-17T19:07:43.703Z,55.40
2018-12-17T19:10:11.294Z,60.40
2018-12-17T19:12:38.886Z,41.10
2018-12-17T19:15:06.579Z,56.30
2018-12-17T19:17:34.172Z,47.63
2018-12-17T19:20:01.875Z,46.97
2018-12-17T19:22:29.470Z,53.20
2018-12-17T19:24:57.211Z,46.53
2018-12-17T19:27:24.808Z,54.40
2018-12-17T19:29:52.430Z,47.93
2018-12-17T19:32:20.022Z,54.20
2018-12-17T19:34:47.635Z,51.83
2018-12-17T19:37:15.234Z,50.27
2018-12-17T19:39:42.848Z,52.70
2018-12-17T19:42:10.442Z,43.77
2018-12-17T19:44:38.054Z,45.40
2018-12-17T19:47:05.654Z,48.00
2018-12-17T19:49:33.263Z,47.03
2018-12-17T19:52:00.853Z,48.50
2018-12-17T19:54:28.468Z,45.90
2018-12-17T19:56:56.064Z,43.63
2018-12-17T19:59:23.679Z,48.93
2018-12-17T20:01:51.272Z,48.37
2018-12-17T20:04:18.888Z,45.27
2018-12-17T20:06:46.479Z,40.57
2018-12-17T20:09:14.067Z,45.77
2018-12-17T20:11:42.555Z,46.07
2018-12-17T20:14:10.155Z,43.03
2018-12-17T20:16:37.774Z,47.10
2018-12-17T20:19:05.383Z,41.87
2018-12-17T20:21:32.991Z,45.00
2018-12-17T20:24:00.583Z,44.90
2018-12-17T20:26:28.199Z,44.90
2018-12-17T20:28:55.790Z,40.00
2018-12-17T20:31:23.408Z,43.37
2018-12-17T20:33:50.999Z,44.43
2018-12-17T20:36:18.618Z,42.27
2018-12-17T20:38:46.211Z,42.20
2018-12-17T20:41:13.825Z,40.70
2018-12-17T20:43:41.410Z,45.30
2018-12-17T20:46:09.031Z,40.60
2018-12-17T20:48:36.619Z,43.63
2018-12-17T20:51:04.315Z,41.63
2018-12-17T20:53:31.909Z,41.43
2018-12-17T20:55:59.532Z,45.50
2018-12-17T20:58:27.141Z,45.30
2018-12-17T21:00:54.763Z,46.40
2018-12-17T21:03:22.355Z,40.77
2018-12-17T21:05:50.104Z,41.87
2018-12-17T21:08:17.690Z,42.77
2018-12-17T21:10:45.294Z,42.87
2018-12-17T21:13:12.905Z,44.80
2018-12-17T21:15:40.497Z,43.17
2018-12-17T21:18:08.110Z,41.60
2018-12-17T21:20:35.701Z,43.33
2018-12-17T21:23:03.314Z,43.53
2018-12-17T21:25:30.903Z,46.60
2018-12-17T21:27:58.524Z,43.93
2018-12-17T21:30:26.112Z,43.00
2018-12-17T21:32:53.731Z,45.80
2018-12-17T21:35:21.324Z,43.67
2018-12-17T21:37:48.939Z,46.03
2018-12-17T21:40:16.531Z,46.23
2018-12-17T21:42:44.147Z,41.13
2018-12-17T21:45:11.740Z,47.57
2018-12-17T21:47:39.351Z,45.43
2018-12-17T21:50:07.127Z,48.63
2018-12-17T21:52:34.739Z,46.20
2018-12-17T21:55:02.338Z,42.37
2018-12-17T21:57:29.957Z,51.33
2018-12-17T21:59:57.580Z,54.53
2018-12-17T22:02:25.191Z,55.90
2018-12-17T22:04:52.782Z,45.27
2018-12-17T22:07:20.374Z,42.20
2018-12-17T22:09:47.993Z,46.93
2018-12-17T22:12:15.591Z,49.93
2018-12-17T22:14:43.204Z,42.83
2018-12-17T22:17:10.934Z,52.67
2018-12-17T22:19:38.563Z,51.37
2018-12-17T22:22:06.154Z,47.93
2018-12-17T22:24:33.766Z,44.43
2018-12-17T22:27:01.358Z,50.83
2018-12-17T22:29:28.977Z,41.23
2018-12-17T22:31:56.577Z,53.00
2018-12-17T22:34:24.192Z,38.67
2018-12-17T22:36:51.793Z,40.60
2018-12-17T22:39:19.419Z,48.53
2018-12-17T22:41:47.012Z,41.03
2018-12-17T22:44:14.627Z,40.13
2018-12-17T22:46:42.219Z,40.43
2018-12-17T22:49:09.832Z,39.10
2018-12-17T22:51:37.602Z,40.70
2018-12-17T22:54:05.212Z,43.13
2018-12-17T22:56:32.803Z,43.33
2018-12-17T22:59:00.421Z,42.10
2018-12-17T23:01:28.019Z,39.00
2018-12-17T23:03:55.636Z,36.30
2018-12-17T23:06:23.224Z,45.63
2018-12-17T23:09:03.806Z,42.23
2018-12-17T23:11:49.025Z,43.70
2018-12-17T23:14:28.440Z,37.60
2018-12-17T23:17:07.992Z,43.10
2018-12-17T23:19:41.203Z,40.43
2018-12-17T23:22:08.802Z,38.20
2018-12-17T23:24:36.794Z,45.80
2018-12-17T23:27:04.961Z,45.97
2018-12-17T23:29:33.244Z,41.87
2018-12-17T23:32:00.911Z,43.60
2018-12-17T23:34:28.528Z,51.10
2018-12-17T23:36:56.113Z,44.50
2018-12-17T23:39:23.747Z,47.23
2018-12-17T23:41:51.344Z,52.33
2018-12-17T23:44:19.019Z,47.07
2018-12-17T23:46:46.635Z,44.63
2018-12-17T23:49:14.226Z,51.80
2018-12-17T23:51:41.835Z,53.67
2018-12-17T23:54:09.511Z,46.53
2018-12-17T23:56:37.125Z,47.10
2018-12-17T23:59:04.719Z,46.60
